EDT,Max TemperatureF,Mean TemperatureF,Min TemperatureF,Max Dew PointF,MeanDew PointF,Min DewpointF,Max Humidity, Mean Humidity, Min Humidity, Max Sea Level PressureIn, Mean Sea Level PressureIn, Min Sea Level PressureIn, Max VisibilityMiles, Mean VisibilityMiles, Min VisibilityMiles, Max Wind SpeedMPH, Mean Wind SpeedMPH, Max Gust SpeedMPH,PrecipitationIn, CloudCover, Events, WindDirDegrees
2013-9-1,84,76,69,70,67,64,94,76,51,29.89,29.84,29.78,10,9,4,10,4,,0.00,2,Thunderstorm,186
2013-9-2,73,70,68,68,66,64,94,88,78,29.87,29.80,29.73,10,8,2,13,6,,0.01,8,Thunderstorm,64
2013-9-3,73,68,64,66,62,57,94,79,65,29.78,29.74,29.70,10,10,3,10,4,,0.00,5,Thunderstorm,251
2013-9-4,78,68,59,57,54,48,82,63,34,29.89,29.84,29.78,10,10,10,15,6,21,0.00,1,,252
2013-9-5,66,57,44,57,44,34,88,60,30,30.14,29.97,29.85,10,10,9,14,3,21,0.00,3,,289
2013-9-6,66,54,41,46,40,36,87,61,34,30.23,30.15,30.05,10,10,10,14,4,18,0.00,0,,250
2013-9-7,73,62,51,52,46,43,76,58,38,30.05,29.94,29.82,10,10,10,15,6,18,0.00,1,,231
2013-9-8,64,55,44,54,43,36,82,56,39,30.07,29.86,29.73,10,10,10,18,9,30,0.00,4,,270
2013-9-9,68,54,41,46,41,37,87,60,35,30.20,30.13,30.07,10,10,10,13,4,18,0.00,0,,222
2013-9-10,69,60,51,64,55,46,94,83,67,30.11,30.06,30.01,10,10,5,9,4,,0.05,4,,266
2013-9-11,91,78,64,72,67,63,94,75,46,30.05,29.99,29.90,10,9,1,15,4,30,0.04,3,Thunderstorm,239
2013-9-12,73,70,66,70,66,63,94,88,78,29.93,29.80,29.66,10,8,3,17,4,24,0.01,3,Thunderstorm,230
2013-9-13,71,63,55,64,58,48,94,82,69,29.76,29.65,29.59,10,10,8,12,5,18,0.00,4,,268
2013-9-14,64,57,50,50,48,45,87,70,52,30.03,29.89,29.76,10,10,10,14,6,21,0.00,4,,268
2013-9-15,68,56,44,52,45,39,87,66,40,30.13,30.06,30.00,10,10,10,13,5,17,0.00,0,,236
2013-9-16,62,53,44,52,44,32,88,67,47,30.26,30.07,29.98,10,10,9,16,6,25,0.00,2,,280
2013-9-17,62,48,35,45,37,30,93,66,39,30.41,30.34,30.26,10,10,10,9,1,,0.00,0,,244
2013-9-18,71,58,44,48,43,37,93,67,29,30.30,30.21,30.11,10,10,1,12,5,,0.00,0,,242
2013-9-19,75,60,46,54,48,43,94,69,31,30.12,30.08,30.02,10,10,10,10,4,,0.00,0,,238
2013-9-20,77,62,48,55,51,45,93,73,39,30.10,30.04,29.99,10,8,0,6,1,,0.00,1,,115
2013-9-21,71,60,48,61,53,46,94,74,53,30.01,29.87,29.69,10,9,0,16,5,25,0.00,4,,188
2013-9-22,69,60,48,63,51,37,88,69,46,29.82,29.67,29.57,10,10,8,17,10,25,0.06,5,,246
2013-9-23,55,50,44,39,36,34,76,61,47,29.98,29.91,29.82,10,10,10,20,8,30,0.00,3,,283
2013-9-24,60,52,44,41,37,36,71,59,42,29.96,29.89,29.82,10,10,10,16,8,25,0.00,3,,277
2013-9-25,62,53,44,45,43,39,93,67,52,29.99,29.90,29.86,10,10,10,12,5,17,0.00,4,,298
2013-9-26,64,52,39,48,43,37,93,69,45,30.14,30.04,29.99,10,10,7,12,2,18,0.00,2,,89
2013-9-27,69,60,50,52,47,46,87,70,43,30.26,30.20,30.14,10,10,6,7,3,,0.00,4,,246
2013-9-28,71,58,44,52,47,43,93,72,38,30.35,30.29,30.26,10,10,7,7,1,,0.00,0,,47
2013-9-29,69,58,46,52,46,43,94,76,40,30.27,30.18,30.10,10,8,0,7,1,,0.00,2,,62
2013-9-30,68,55,42,52,46,39,93,77,46,30.12,30.04,29.97,10,8,0,8,2,,0.00,2,,160